createdAt,value
2018-01-13T10:27:03.532Z,12.93
2018-01-13T10:29:30.880Z,12.93
2018-01-13T10:31:58.164Z,14.50
2018-01-13T10:34:25.460Z,14.00
2018-01-13T10:36:52.755Z,13.03
2018-01-13T10:39:20.063Z,13.00
2018-01-13T10:41:47.326Z,13.77
2018-01-13T10:44:14.620Z,14.73
2018-01-13T10:46:41.887Z,14.27
2018-01-13T10:49:09.182Z,14.80
2018-01-13T10:51:36.442Z,19.97
2018-01-13T10:54:03.790Z,14.40
2018-01-13T10:56:31.076Z,19.47
2018-01-13T10:58:58.340Z,15.60
2018-01-13T11:01:25.633Z,13.60
2018-01-13T11:03:52.900Z,12.80
2018-01-13T11:06:20.194Z,20.13
2018-01-13T11:08:47.488Z,13.40
2018-01-13T11:11:14.751Z,15.93
2018-01-13T11:13:42.052Z,11.97
2018-01-13T11:16:09.321Z,13.80
2018-01-13T11:18:36.588Z,14.50
2018-01-13T11:21:03.881Z,16.03
2018-01-13T11:23:31.231Z,14.17
2018-01-13T11:25:58.591Z,13.20
2018-01-13T11:28:25.885Z,14.60
2018-01-13T11:30:53.196Z,14.80
2018-01-13T11:33:20.492Z,14.77
2018-01-13T11:35:47.760Z,12.50
2018-01-13T11:38:15.051Z,13.97
2018-01-13T11:40:42.393Z,13.60
2018-01-13T11:43:09.616Z,13.00
2018-01-13T11:45:36.918Z,13.70
2018-01-13T11:48:04.202Z,12.97
2018-01-13T11:50:31.501Z,13.17
2018-01-13T11:52:58.766Z,13.10
2018-01-13T11:55:26.034Z,14.37
2018-01-13T11:57:53.331Z,14.50
2018-01-13T12:00:20.593Z,12.97
2018-01-13T12:02:47.856Z,11.77
2018-01-13T12:05:15.160Z,13.53
2018-01-13T12:07:42.429Z,13.77
2018-01-13T12:10:09.765Z,12.80
2018-01-13T12:12:37.079Z,13.63
2018-01-13T12:15:04.373Z,12.70
2018-01-13T12:17:31.642Z,13.33
2018-01-13T12:19:58.988Z,12.87
2018-01-13T12:22:26.278Z,12.10
2018-01-13T12:24:53.733Z,12.33
2018-01-13T12:27:20.996Z,12.37
2018-01-13T12:29:48.285Z,13.10
2018-01-13T12:32:15.544Z,14.57
2018-01-13T12:34:42.924Z,12.77
2018-01-13T12:37:10.188Z,13.13
2018-01-13T12:39:37.524Z,12.43
2018-01-13T12:42:04.790Z,11.63
2018-01-13T12:44:32.080Z,13.03
2018-01-13T12:46:59.341Z,14.87
2018-01-13T12:49:26.811Z,12.40
2018-01-13T12:51:54.145Z,14.90
2018-01-13T12:54:21.409Z,30.60
2018-01-13T12:56:48.746Z,17.50
2018-01-13T12:59:16.000Z,17.53
2018-01-13T13:01:43.337Z,20.37
2018-01-13T13:04:10.632Z,12.27
2018-01-13T13:06:37.911Z,13.93
2018-01-13T13:09:05.201Z,23.17
2018-01-13T13:11:32.509Z,17.87
2018-01-13T13:13:59.797Z,15.13
2018-01-13T13:16:27.049Z,22.37
2018-01-13T13:18:54.341Z,23.20
2018-01-13T13:21:21.648Z,26.07
2018-01-13T13:23:48.952Z,31.90
2018-01-13T13:26:16.259Z,20.70
2018-01-13T13:28:43.527Z,24.37
2018-01-13T13:31:10.831Z,26.30
2018-01-13T13:33:38.096Z,27.70
2018-01-13T13:36:05.379Z,53.67
2018-01-13T13:38:32.640Z,35.80
2018-01-13T13:40:59.992Z,17.37
2018-01-13T13:43:27.284Z,16.80
2018-01-13T13:45:54.548Z,16.70
2018-01-13T13:48:21.844Z,33.17
2018-01-13T13:50:49.099Z,23.77
2018-01-13T13:53:16.367Z,23.00
2018-01-13T13:55:43.700Z,27.13
2018-01-13T13:58:11.064Z,16.23
2018-01-13T14:00:38.367Z,20.50
2018-01-13T14:03:05.656Z,25.80
2018-01-13T14:05:33.026Z,18.70
2018-01-13T14:08:00.289Z,21.80
2018-01-13T14:10:27.584Z,42.93
2018-01-13T14:12:55.774Z,20.93
2018-01-13T14:15:23.031Z,19.90
2018-01-13T14:17:50.293Z,15.97
2018-01-13T14:20:17.589Z,14.73
2018-01-13T14:22:44.920Z,21.40
2018-01-13T14:25:12.219Z,22.60
2018-01-13T14:27:39.488Z,33.33
2018-01-13T14:30:06.784Z,26.40
2018-01-13T14:32:34.084Z,25.30
2018-01-13T14:35:01.401Z,19.67
2018-01-13T14:37:28.641Z,16.93
2018-01-13T14:39:55.947Z,21.60
2018-01-13T14:42:23.257Z,17.63
2018-01-13T14:44:50.472Z,15.23
2018-01-13T14:47:17.772Z,14.83
2018-01-13T14:49:45.061Z,22.50
2018-01-13T14:52:12.376Z,26.93
2018-01-13T14:54:39.673Z,24.10
2018-01-13T14:57:06.978Z,16.33
2018-01-13T14:59:34.542Z,19.30
2018-01-13T15:02:01.805Z,16.07
2018-01-13T15:04:29.088Z,15.47
2018-01-13T15:06:56.577Z,17.13
2018-01-13T15:09:23.840Z,14.23
2018-01-13T15:11:51.136Z,14.27
2018-01-13T15:14:18.419Z,14.30
2018-01-13T15:16:45.708Z,13.93
2018-01-13T15:19:13.080Z,13.37
2018-01-13T15:21:40.372Z,15.47
2018-01-13T15:24:07.641Z,18.40
2018-01-13T15:26:34.938Z,15.60
2018-01-13T15:29:02.228Z,16.53
2018-01-13T15:31:29.552Z,18.70
2018-01-13T15:33:56.912Z,17.83
2018-01-13T15:36:24.180Z,16.87
2018-01-13T15:38:51.449Z,15.13
2018-01-13T15:41:18.766Z,18.70
2018-01-13T15:43:46.032Z,17.50
2018-01-13T15:46:13.291Z,19.63
2018-01-13T15:48:40.640Z,20.23
2018-01-13T15:51:07.905Z,16.80
2018-01-13T15:53:35.204Z,17.67
2018-01-13T15:56:02.476Z,16.43
2018-01-13T15:58:29.781Z,20.03
2018-01-13T16:00:57.112Z,22.93
2018-01-13T16:03:24.381Z,14.07
2018-01-13T16:05:51.675Z,18.23
2018-01-13T16:08:18.931Z,18.10
2018-01-13T16:10:46.224Z,15.30
2018-01-13T16:13:13.492Z,15.07
2018-01-13T16:15:40.765Z,15.50
2018-01-13T16:18:08.056Z,16.40
2018-01-13T16:20:35.335Z,14.87
2018-01-13T16:23:02.627Z,20.47
2018-01-13T16:25:29.897Z,16.93
2018-01-13T16:27:57.183Z,16.53
2018-01-13T16:30:24.521Z,17.50
2018-01-13T16:32:51.784Z,17.17
2018-01-13T16:35:19.077Z,19.30
2018-01-13T16:37:46.435Z,20.80
2018-01-13T16:40:13.689Z,16.90
2018-01-13T16:42:40.983Z,17.97
2018-01-13T16:45:08.288Z,22.87
2018-01-13T16:47:35.633Z,21.63
2018-01-13T16:50:02.903Z,21.00
2018-01-13T16:52:30.200Z,22.30
2018-01-13T16:54:57.472Z,21.20
2018-01-13T16:57:24.768Z,17.33
2018-01-13T16:59:52.033Z,26.13
2018-01-13T17:02:19.313Z,47.83
2018-01-13T17:04:46.613Z,59.70
2018-01-13T17:07:13.902Z,40.93
2018-01-13T17:09:41.172Z,23.27
2018-01-13T17:12:08.445Z,18.80
2018-01-13T17:14:35.735Z,21.63
2018-01-13T17:17:03.023Z,20.27
2018-01-13T17:19:30.323Z,14.97
2018-01-13T17:21:57.594Z,17.57
2018-01-13T17:24:24.864Z,20.93
2018-01-13T17:26:52.163Z,20.43
2018-01-13T17:29:19.424Z,16.20
2018-01-13T17:31:46.727Z,15.70
2018-01-13T17:34:14.028Z,18.10
2018-01-13T17:36:41.297Z,17.40
2018-01-13T17:39:08.575Z,17.93
2018-01-13T17:41:35.878Z,16.70
2018-01-13T17:44:03.147Z,20.03
2018-01-13T17:46:30.407Z,18.97
2018-01-13T17:48:57.764Z,17.90
2018-01-13T17:51:24.970Z,21.23
2018-01-13T17:53:52.277Z,19.13
2018-01-13T17:56:19.541Z,20.87
2018-01-13T17:58:46.910Z,18.80
2018-01-13T18:01:14.204Z,20.90
2018-01-13T18:03:41.505Z,18.53
2018-01-13T18:06:08.766Z,18.07
2018-01-13T18:08:36.053Z,16.67
2018-01-13T18:11:03.313Z,22.40
2018-01-13T18:13:30.608Z,17.10
2018-01-13T18:15:57.880Z,17.47
2018-01-13T18:18:25.192Z,18.33
2018-01-13T18:20:52.460Z,17.50
2018-01-13T18:23:19.729Z,17.87
2018-01-13T18:25:47.014Z,17.97
2018-01-13T18:28:14.299Z,20.90
2018-01-13T18:30:41.568Z,19.40
2018-01-13T18:33:08.868Z,16.70
2018-01-13T18:35:36.128Z,18.73
2018-01-13T18:38:03.665Z,19.67
2018-01-13T18:40:30.948Z,19.00
2018-01-13T18:42:58.552Z,20.70
2018-01-13T18:45:25.959Z,18.43
2018-01-13T18:47:53.224Z,20.33
2018-01-13T18:50:20.496Z,20.50
2018-01-13T18:52:47.825Z,17.67
2018-01-13T18:55:15.120Z,20.00
2018-01-13T18:57:42.396Z,18.60
2018-01-13T19:00:09.688Z,18.90
2018-01-13T19:02:36.956Z,19.77
2018-01-13T19:05:04.252Z,18.83
2018-01-13T19:07:31.524Z,20.10
2018-01-13T19:09:59.896Z,21.83
2018-01-13T19:12:27.336Z,19.47
2018-01-13T19:14:54.626Z,18.70
2018-01-13T19:17:21.921Z,19.27
2018-01-13T19:19:49.207Z,18.30
2018-01-13T19:22:16.519Z,18.67
2018-01-13T19:24:43.812Z,18.50
2018-01-13T19:27:11.095Z,18.63
2018-01-13T19:29:38.386Z,17.60
2018-01-13T19:32:05.652Z,19.10
2018-01-13T19:34:32.949Z,17.63
2018-01-13T19:37:00.219Z,19.40
2018-01-13T19:39:27.508Z,18.90
2018-01-13T19:41:54.826Z,20.00
2018-01-13T19:44:22.176Z,19.50
2018-01-13T19:46:49.483Z,20.50
2018-01-13T19:49:16.756Z,19.70
2018-01-13T19:51:44.024Z,17.90
2018-01-13T19:54:11.320Z,19.17
2018-01-13T19:56:38.605Z,17.50
2018-01-13T19:59:05.900Z,19.10
2018-01-13T20:01:33.165Z,18.40
2018-01-13T20:04:00.423Z,19.30
2018-01-13T20:06:27.714Z,17.87
2018-01-13T20:08:54.976Z,19.30
2018-01-13T20:11:22.281Z,18.67
2018-01-13T20:13:49.539Z,18.27
2018-01-13T20:16:16.876Z,16.53
2018-01-13T20:18:44.281Z,15.83
2018-01-13T20:21:11.553Z,20.50
2018-01-13T20:23:38.844Z,19.07
2018-01-13T20:26:06.146Z,21.37
2018-01-13T20:28:33.408Z,20.80
2018-01-13T20:31:00.701Z,18.83
2018-01-13T20:33:27.967Z,20.40
2018-01-13T20:35:55.268Z,18.50
2018-01-13T20:38:22.538Z,20.27
2018-01-13T20:40:49.827Z,21.30
2018-01-13T20:43:17.115Z,20.30
2018-01-13T20:45:44.376Z,19.40
2018-01-13T20:48:11.671Z,19.93
2018-01-13T20:50:38.947Z,17.13
2018-01-13T20:53:06.232Z,17.63
2018-01-13T20:55:33.520Z,20.10
2018-01-13T20:58:00.788Z,17.47
2018-01-13T21:00:28.092Z,18.80
2018-01-13T21:02:55.384Z,20.50
2018-01-13T21:05:22.649Z,19.60
2018-01-13T21:07:55.016Z,17.30
2018-01-13T21:10:22.269Z,16.00
2018-01-13T21:12:49.560Z,15.00
2018-01-13T21:15:16.835Z,15.57
2018-01-13T21:17:44.132Z,16.73
2018-01-13T21:20:11.425Z,15.40
2018-01-13T21:22:38.687Z,16.13
2018-01-13T21:25:05.985Z,15.67
2018-01-13T21:27:33.252Z,15.83
2018-01-13T21:30:00.526Z,14.77
2018-01-13T21:32:27.815Z,16.70
2018-01-13T21:34:55.072Z,13.83
2018-01-13T21:37:22.355Z,13.60
2018-01-13T21:39:49.636Z,15.87
2018-01-13T21:42:16.940Z,15.60
2018-01-13T21:44:44.203Z,15.80
2018-01-13T21:47:11.471Z,17.53
2018-01-13T21:49:38.754Z,13.73
2018-01-13T21:52:06.021Z,17.23
2018-01-13T21:54:33.308Z,15.37
2018-01-13T21:57:00.593Z,17.10
2018-01-13T21:59:27.864Z,14.57
2018-01-13T22:01:55.132Z,20.93
2018-01-13T22:04:22.418Z,17.13
2018-01-13T22:06:49.690Z,15.93
2018-01-13T22:09:16.963Z,14.83
2018-01-13T22:11:44.283Z,14.53
2018-01-13T22:14:11.570Z,14.97
2018-01-13T22:16:38.861Z,12.70
2018-01-13T22:19:06.184Z,14.50
2018-01-13T22:21:33.473Z,14.97
2018-01-13T22:24:00.744Z,14.47
2018-01-13T22:26:28.024Z,14.07
2018-01-13T22:28:55.299Z,13.97
2018-01-13T22:31:22.647Z,14.73
2018-01-13T22:33:49.916Z,14.53
2018-01-13T22:36:17.208Z,13.53
2018-01-13T22:38:44.470Z,12.73
2018-01-13T22:41:11.765Z,14.90
2018-01-13T22:43:39.020Z,14.03
2018-01-13T22:46:06.406Z,13.97
2018-01-13T22:48:33.667Z,14.80
2018-01-13T22:51:00.995Z,14.47
2018-01-13T22:53:28.233Z,14.80
2018-01-13T22:55:55.501Z,15.03
2018-01-13T22:58:22.784Z,15.17
2018-01-13T23:00:55.780Z,14.37
2018-01-13T23:03:23.068Z,12.90
2018-01-13T23:05:50.324Z,14.50
2018-01-13T23:08:17.627Z,13.90
2018-01-13T23:10:44.889Z,14.90
2018-01-13T23:13:12.139Z,13.73
2018-01-13T23:15:39.432Z,14.77
2018-01-13T23:18:06.691Z,14.30
2018-01-13T23:20:33.985Z,17.80
2018-01-13T23:23:01.288Z,16.30
2018-01-13T23:25:28.556Z,15.73
2018-01-13T23:27:55.821Z,16.20
2018-01-13T23:30:23.123Z,15.60
2018-01-13T23:32:50.393Z,14.80
2018-01-13T23:35:17.660Z,15.37
2018-01-13T23:37:44.956Z,16.57
2018-01-13T23:40:12.255Z,15.80
2018-01-13T23:42:39.522Z,17.30
2018-01-13T23:45:06.785Z,16.80
2018-01-13T23:47:34.072Z,16.33
2018-01-13T23:50:01.338Z,14.70
2018-01-13T23:52:28.628Z,16.70
2018-01-13T23:54:55.893Z,15.60
2018-01-13T23:57:23.187Z,15.63
2018-01-13T23:59:50.488Z,14.73
